sensor_id;sensor_type;location;lat;lon;timestamp;P1;durP1;ratioP1;P2;durP2;ratioP2
18174;SDS011;9212;50.894;16.714;2023-02-15T00:01:39;33.60;;;13.57;;
18174;SDS011;9212;50.894;16.714;2023-02-15T00:04:07;37.17;;;14.20;;
18174;SDS011;9212;50.894;16.714;2023-02-15T00:06:37;31.93;;;13.23;;
18174;SDS011;9212;50.894;16.714;2023-02-15T00:09:04;52.73;;;18.43;;
18174;SDS011;9212;50.894;16.714;2023-02-15T00:11:31;42.47;;;15.70;;
18174;SDS011;9212;50.894;16.714;2023-02-15T00:14:15;36.13;;;14.53;;
18174;SDS011;9212;50.894;16.714;2023-02-15T00:16:43;35.67;;;13.90;;
18174;SDS011;9212;50.894;16.714;2023-02-15T00:19:12;34.27;;;12.10;;
18174;SDS011;9212;50.894;16.714;2023-02-15T00:21:42;29.43;;;13.70;;
18174;SDS011;9212;50.894;16.714;2023-02-15T00:24:10;35.47;;;13.23;;
18174;SDS011;9212;50.894;16.714;2023-02-15T00:26:38;31.73;;;13.13;;
18174;SDS011;9212;50.894;16.714;2023-02-15T00:29:07;30.90;;;13.00;;
18174;SDS011;9212;50.894;16.714;2023-02-15T00:31:34;33.60;;;14.37;;
18174;SDS011;9212;50.894;16.714;2023-02-15T00:34:02;33.20;;;15.07;;
18174;SDS011;9212;50.894;16.714;2023-02-15T00:36:30;31.10;;;13.77;;
18174;SDS011;9212;50.894;16.714;2023-02-15T00:38:59;31.97;;;11.87;;
18174;SDS011;9212;50.894;16.714;2023-02-15T00:41:26;30.00;;;12.30;;
18174;SDS011;9212;50.894;16.714;2023-02-15T00:43:53;27.17;;;11.87;;
18174;SDS011;9212;50.894;16.714;2023-02-15T00:46:20;29.80;;;11.97;;
18174;SDS011;9212;50.894;16.714;2023-02-15T00:48:49;27.33;;;11.20;;
18174;SDS011;9212;50.894;16.714;2023-02-15T00:51:16;35.53;;;12.90;;
18174;SDS011;9212;50.894;16.714;2023-02-15T00:53:43;27.23;;;11.83;;
18174;SDS011;9212;50.894;16.714;2023-02-15T00:56:14;31.80;;;11.80;;
18174;SDS011;9212;50.894;16.714;2023-02-15T00:58:43;29.20;;;12.20;;
18174;SDS011;9212;50.894;16.714;2023-02-15T01:01:14;31.83;;;12.23;;
18174;SDS011;9212;50.894;16.714;2023-02-15T01:03:43;31.57;;;13.03;;
18174;SDS011;9212;50.894;16.714;2023-02-15T01:06:11;29.23;;;12.33;;
18174;SDS011;9212;50.894;16.714;2023-02-15T01:08:38;32.10;;;11.93;;
18174;SDS011;9212;50.894;16.714;2023-02-15T01:11:06;34.23;;;12.33;;
18174;SDS011;9212;50.894;16.714;2023-02-15T01:13:36;31.77;;;12.33;;
18174;SDS011;9212;50.894;16.714;2023-02-15T01:16:03;32.30;;;11.73;;
18174;SDS011;9212;50.894;16.714;2023-02-15T01:18:31;30.63;;;12.63;;
18174;SDS011;9212;50.894;16.714;2023-02-15T01:20:58;30.87;;;12.93;;
18174;SDS011;9212;50.894;16.714;2023-02-15T01:23:25;26.47;;;10.87;;
18174;SDS011;9212;50.894;16.714;2023-02-15T01:25:52;24.17;;;9.97;;
18174;SDS011;9212;50.894;16.714;2023-02-15T01:28:19;29.13;;;11.73;;
18174;SDS011;9212;50.894;16.714;2023-02-15T01:30:48;32.57;;;13.30;;
18174;SDS011;9212;50.894;16.714;2023-02-15T01:33:15;29.07;;;11.40;;
18174;SDS011;9212;50.894;16.714;2023-02-15T01:35:44;30.00;;;11.33;;
18174;SDS011;9212;50.894;16.714;2023-02-15T01:38:11;27.37;;;10.93;;
18174;SDS011;9212;50.894;16.714;2023-02-15T01:40:38;26.50;;;11.57;;
18174;SDS011;9212;50.894;16.714;2023-02-15T01:43:07;30.37;;;9.83;;
18174;SDS011;9212;50.894;16.714;2023-02-15T01:45:36;29.33;;;11.23;;
18174;SDS011;9212;50.894;16.714;2023-02-15T01:48:05;26.37;;;10.33;;
18174;SDS011;9212;50.894;16.714;2023-02-15T01:50:44;28.87;;;10.70;;
18174;SDS011;9212;50.894;16.714;2023-02-15T01:53:16;22.70;;;10.27;;
18174;SDS011;9212;50.894;16.714;2023-02-15T01:55:47;26.17;;;10.90;;
18174;SDS011;9212;50.894;16.714;2023-02-15T01:58:16;24.30;;;10.10;;
18174;SDS011;9212;50.894;16.714;2023-02-15T02:00:44;28.33;;;11.00;;
18174;SDS011;9212;50.894;16.714;2023-02-15T02:03:12;27.70;;;10.33;;
18174;SDS011;9212;50.894;16.714;2023-02-15T02:05:40;24.13;;;10.07;;
18174;SDS011;9212;50.894;16.714;2023-02-15T02:08:08;27.77;;;10.70;;
18174;SDS011;9212;50.894;16.714;2023-02-15T02:10:35;19.73;;;9.73;;
18174;SDS011;9212;50.894;16.714;2023-02-15T02:13:03;24.93;;;10.07;;
18174;SDS011;9212;50.894;16.714;2023-02-15T02:15:34;18.30;;;9.27;;
18174;SDS011;9212;50.894;16.714;2023-02-15T02:18:12;26.03;;;10.73;;
18174;SDS011;9212;50.894;16.714;2023-02-15T02:21:09;27.90;;;10.93;;
18174;SDS011;9212;50.894;16.714;2023-02-15T02:24:21;27.57;;;10.73;;
18174;SDS011;9212;50.894;16.714;2023-02-15T02:27:10;27.40;;;9.50;;
18174;SDS011;9212;50.894;16.714;2023-02-15T02:29:58;20.40;;;10.00;;
18174;SDS011;9212;50.894;16.714;2023-02-15T02:35:55;25.77;;;10.43;;
18174;SDS011;9212;50.894;16.714;2023-02-15T02:38:29;22.07;;;10.13;;
18174;SDS011;9212;50.894;16.714;2023-02-15T02:41:05;24.90;;;10.07;;
18174;SDS011;9212;50.894;16.714;2023-02-15T02:43:40;25.53;;;11.03;;
18174;SDS011;9212;50.894;16.714;2023-02-15T02:46:15;23.47;;;9.80;;
18174;SDS011;9212;50.894;16.714;2023-02-15T02:48:47;31.37;;;10.37;;
18174;SDS011;9212;50.894;16.714;2023-02-15T02:51:17;22.23;;;9.77;;
18174;SDS011;9212;50.894;16.714;2023-02-15T02:53:47;28.60;;;12.00;;
18174;SDS011;9212;50.894;16.714;2023-02-15T02:56:18;31.90;;;10.50;;
18174;SDS011;9212;50.894;16.714;2023-02-15T02:58:50;25.53;;;10.20;;
18174;SDS011;9212;50.894;16.714;2023-02-15T03:01:22;24.00;;;10.07;;
18174;SDS011;9212;50.894;16.714;2023-02-15T03:03:54;24.90;;;9.13;;
18174;SDS011;9212;50.894;16.714;2023-02-15T03:06:28;18.03;;;8.90;;
18174;SDS011;9212;50.894;16.714;2023-02-15T03:09:03;29.73;;;11.47;;
18174;SDS011;9212;50.894;16.714;2023-02-15T03:11:40;23.47;;;10.10;;
18174;SDS011;9212;50.894;16.714;2023-02-15T03:14:09;26.47;;;10.70;;
18174;SDS011;9212;50.894;16.714;2023-02-15T03:16:37;26.37;;;9.63;;
18174;SDS011;9212;50.894;16.714;2023-02-15T03:19:07;25.00;;;10.67;;
18174;SDS011;9212;50.894;16.714;2023-02-15T03:21:38;22.70;;;10.47;;
18174;SDS011;9212;50.894;16.714;2023-02-15T03:24:15;27.23;;;11.60;;
18174;SDS011;9212;50.894;16.714;2023-02-15T03:26:48;26.07;;;9.83;;
18174;SDS011;9212;50.894;16.714;2023-02-15T03:29:17;24.73;;;9.50;;
18174;SDS011;9212;50.894;16.714;2023-02-15T03:31:47;29.73;;;10.37;;
18174;SDS011;9212;50.894;16.714;2023-02-15T03:34:17;25.30;;;11.03;;
18174;SDS011;9212;50.894;16.714;2023-02-15T03:36:47;23.97;;;9.83;;
18174;SDS011;9212;50.894;16.714;2023-02-15T03:39:19;26.03;;;11.30;;
18174;SDS011;9212;50.894;16.714;2023-02-15T03:41:55;27.37;;;12.00;;
18174;SDS011;9212;50.894;16.714;2023-02-15T03:44:26;28.37;;;10.37;;
18174;SDS011;9212;50.894;16.714;2023-02-15T03:46:57;23.07;;;10.27;;
18174;SDS011;9212;50.894;16.714;2023-02-15T03:49:31;23.40;;;10.47;;
18174;SDS011;9212;50.894;16.714;2023-02-15T03:52:05;23.90;;;9.63;;
18174;SDS011;9212;50.894;16.714;2023-02-15T03:54:34;25.93;;;8.80;;
18174;SDS011;9212;50.894;16.714;2023-02-15T03:57:09;23.70;;;10.20;;
18174;SDS011;9212;50.894;16.714;2023-02-15T03:59:56;26.27;;;11.07;;
18174;SDS011;9212;50.894;16.714;2023-02-15T04:02:44;25.43;;;10.83;;
18174;SDS011;9212;50.894;16.714;2023-02-15T04:05:27;27.10;;;10.77;;
18174;SDS011;9212;50.894;16.714;2023-02-15T04:07:55;23.07;;;8.87;;
18174;SDS011;9212;50.894;16.714;2023-02-15T04:10:22;29.53;;;12.33;;
18174;SDS011;9212;50.894;16.714;2023-02-15T04:13:07;26.37;;;10.40;;
18174;SDS011;9212;50.894;16.714;2023-02-15T04:15:34;30.13;;;10.03;;
18174;SDS011;9212;50.894;16.714;2023-02-15T04:18:18;26.37;;;11.23;;
18174;SDS011;9212;50.894;16.714;2023-02-15T04:20:45;36.53;;;11.33;;
18174;SDS011;9212;50.894;16.714;2023-02-15T04:23:32;28.57;;;11.17;;
18174;SDS011;9212;50.894;16.714;2023-02-15T04:26:16;28.13;;;10.80;;
18174;SDS011;9212;50.894;16.714;2023-02-15T04:28:43;28.97;;;10.53;;
18174;SDS011;9212;50.894;16.714;2023-02-15T04:31:10;30.17;;;11.33;;
18174;SDS011;9212;50.894;16.714;2023-02-15T04:33:37;35.10;;;11.67;;
18174;SDS011;9212;50.894;16.714;2023-02-15T04:36:04;26.53;;;10.83;;
18174;SDS011;9212;50.894;16.714;2023-02-15T04:38:33;30.60;;;10.50;;
18174;SDS011;9212;50.894;16.714;2023-02-15T04:41:00;28.97;;;10.60;;
18174;SDS011;9212;50.894;16.714;2023-02-15T04:43:27;32.13;;;12.10;;
18174;SDS011;9212;50.894;16.714;2023-02-15T04:45:54;32.40;;;12.20;;
18174;SDS011;9212;50.894;16.714;2023-02-15T04:48:21;27.17;;;9.43;;
18174;SDS011;9212;50.894;16.714;2023-02-15T04:50:48;28.67;;;11.20;;
18174;SDS011;9212;50.894;16.714;2023-02-15T04:53:15;28.83;;;11.00;;
18174;SDS011;9212;50.894;16.714;2023-02-15T04:55:44;27.03;;;10.63;;
18174;SDS011;9212;50.894;16.714;2023-02-15T04:58:11;32.63;;;11.13;;
18174;SDS011;9212;50.894;16.714;2023-02-15T05:00:39;27.30;;;11.57;;
18174;SDS011;9212;50.894;16.714;2023-02-15T05:03:06;25.80;;;10.67;;
18174;SDS011;9212;50.894;16.714;2023-02-15T05:05:33;30.50;;;11.27;;
18174;SDS011;9212;50.894;16.714;2023-02-15T05:08:00;22.23;;;10.20;;
18174;SDS011;9212;50.894;16.714;2023-02-15T05:10:27;30.90;;;12.47;;
18174;SDS011;9212;50.894;16.714;2023-02-15T05:12:56;24.53;;;9.90;;
18174;SDS011;9212;50.894;16.714;2023-02-15T05:15:23;25.90;;;10.73;;
18174;SDS011;9212;50.894;16.714;2023-02-15T05:17:50;23.43;;;9.60;;
18174;SDS011;9212;50.894;16.714;2023-02-15T05:20:17;24.27;;;10.60;;
18174;SDS011;9212;50.894;16.714;2023-02-15T05:22:44;21.70;;;9.77;;
18174;SDS011;9212;50.894;16.714;2023-02-15T05:25:11;28.37;;;11.70;;
18174;SDS011;9212;50.894;16.714;2023-02-15T05:27:57;26.10;;;9.63;;
18174;SDS011;9212;50.894;16.714;2023-02-15T05:30:42;26.90;;;10.67;;
18174;SDS011;9212;50.894;16.714;2023-02-15T05:33:09;26.53;;;10.20;;
18174;SDS011;9212;50.894;16.714;2023-02-15T05:35:36;25.43;;;10.70;;
18174;SDS011;9212;50.894;16.714;2023-02-15T05:38:03;24.33;;;9.43;;
18174;SDS011;9212;50.894;16.714;2023-02-15T05:40:31;25.47;;;9.77;;
18174;SDS011;9212;50.894;16.714;2023-02-15T05:42:59;22.37;;;9.07;;
18174;SDS011;9212;50.894;16.714;2023-02-15T05:45:26;28.80;;;11.90;;
18174;SDS011;9212;50.894;16.714;2023-02-15T05:47:54;19.07;;;9.00;;
18174;SDS011;9212;50.894;16.714;2023-02-15T05:50:23;24.23;;;9.63;;
18174;SDS011;9212;50.894;16.714;2023-02-15T05:52:50;23.17;;;8.97;;
18174;SDS011;9212;50.894;16.714;2023-02-15T05:55:17;28.13;;;9.80;;
18174;SDS011;9212;50.894;16.714;2023-02-15T05:57:44;29.83;;;10.03;;
18174;SDS011;9212;50.894;16.714;2023-02-15T06:00:13;22.53;;;9.03;;
18174;SDS011;9212;50.894;16.714;2023-02-15T06:02:41;20.43;;;9.30;;
18174;SDS011;9212;50.894;16.714;2023-02-15T06:05:08;23.73;;;9.43;;
18174;SDS011;9212;50.894;16.714;2023-02-15T06:07:36;23.47;;;9.50;;
18174;SDS011;9212;50.894;16.714;2023-02-15T06:10:03;19.67;;;9.20;;
18174;SDS011;9212;50.894;16.714;2023-02-15T06:12:31;29.67;;;8.67;;
18174;SDS011;9212;50.894;16.714;2023-02-15T06:14:58;22.53;;;8.93;;
18174;SDS011;9212;50.894;16.714;2023-02-15T06:17:27;19.50;;;9.27;;
18174;SDS011;9212;50.894;16.714;2023-02-15T06:19:54;21.97;;;9.03;;
18174;SDS011;9212;50.894;16.714;2023-02-15T06:22:21;22.90;;;10.53;;
18174;SDS011;9212;50.894;16.714;2023-02-15T06:24:48;19.73;;;9.47;;
18174;SDS011;9212;50.894;16.714;2023-02-15T06:27:16;26.60;;;9.50;;
18174;SDS011;9212;50.894;16.714;2023-02-15T06:29:43;20.87;;;8.30;;
18174;SDS011;9212;50.894;16.714;2023-02-15T06:32:10;25.10;;;9.13;;
18174;SDS011;9212;50.894;16.714;2023-02-15T06:34:38;29.70;;;10.80;;
18174;SDS011;9212;50.894;16.714;2023-02-15T06:37:05;28.40;;;9.77;;
18174;SDS011;9212;50.894;16.714;2023-02-15T06:39:33;28.83;;;9.93;;
18174;SDS011;9212;50.894;16.714;2023-02-15T06:42:01;32.40;;;10.77;;
18174;SDS011;9212;50.894;16.714;2023-02-15T06:44:28;28.97;;;10.07;;
18174;SDS011;9212;50.894;16.714;2023-02-15T06:46:55;23.60;;;10.27;;
18174;SDS011;9212;50.894;16.714;2023-02-15T06:49:22;25.73;;;10.13;;
18174;SDS011;9212;50.894;16.714;2023-02-15T06:51:51;25.97;;;9.73;;
18174;SDS011;9212;50.894;16.714;2023-02-15T06:54:18;23.43;;;9.23;;
18174;SDS011;9212;50.894;16.714;2023-02-15T06:56:45;23.07;;;10.30;;
18174;SDS011;9212;50.894;16.714;2023-02-15T06:59:12;25.00;;;10.33;;
18174;SDS011;9212;50.894;16.714;2023-02-15T07:01:39;29.10;;;10.13;;
18174;SDS011;9212;50.894;16.714;2023-02-15T07:04:06;33.93;;;11.70;;
18174;SDS011;9212;50.894;16.714;2023-02-15T07:06:34;24.53;;;11.33;;
18174;SDS011;9212;50.894;16.714;2023-02-15T07:09:02;24.60;;;9.27;;
18174;SDS011;9212;50.894;16.714;2023-02-15T07:11:30;26.07;;;10.47;;
18174;SDS011;9212;50.894;16.714;2023-02-15T07:14:15;23.77;;;10.57;;
18174;SDS011;9212;50.894;16.714;2023-02-15T07:16:42;20.33;;;9.10;;
18174;SDS011;9212;50.894;16.714;2023-02-15T07:19:09;26.87;;;9.47;;
18174;SDS011;9212;50.894;16.714;2023-02-15T07:21:36;26.10;;;10.30;;
18174;SDS011;9212;50.894;16.714;2023-02-15T07:24:05;24.77;;;10.17;;
18174;SDS011;9212;50.894;16.714;2023-02-15T07:26:32;21.80;;;9.47;;
18174;SDS011;9212;50.894;16.714;2023-02-15T07:29:00;27.13;;;11.13;;
18174;SDS011;9212;50.894;16.714;2023-02-15T07:31:27;25.30;;;10.23;;
18174;SDS011;9212;50.894;16.714;2023-02-15T07:33:54;23.30;;;9.13;;
18174;SDS011;9212;50.894;16.714;2023-02-15T07:36:21;25.17;;;9.00;;
18174;SDS011;9212;50.894;16.714;2023-02-15T07:38:48;17.77;;;9.63;;
18174;SDS011;9212;50.894;16.714;2023-02-15T07:41:16;28.23;;;11.03;;
18174;SDS011;9212;50.894;16.714;2023-02-15T07:43:44;29.30;;;11.73;;
18174;SDS011;9212;50.894;16.714;2023-02-15T07:46:12;28.93;;;11.60;;
18174;SDS011;9212;50.894;16.714;2023-02-15T07:48:40;28.47;;;11.33;;
18174;SDS011;9212;50.894;16.714;2023-02-15T07:51:08;26.83;;;12.00;;
18174;SDS011;9212;50.894;16.714;2023-02-15T07:53:37;34.50;;;11.67;;
18174;SDS011;9212;50.894;16.714;2023-02-15T07:56:05;34.73;;;11.67;;
18174;SDS011;9212;50.894;16.714;2023-02-15T07:58:35;30.83;;;12.57;;
18174;SDS011;9212;50.894;16.714;2023-02-15T08:01:18;23.97;;;10.93;;
18174;SDS011;9212;50.894;16.714;2023-02-15T08:03:46;34.40;;;12.07;;
18174;SDS011;9212;50.894;16.714;2023-02-15T08:06:13;28.37;;;12.97;;
18174;SDS011;9212;50.894;16.714;2023-02-15T08:08:41;28.83;;;12.97;;
18174;SDS011;9212;50.894;16.714;2023-02-15T08:11:14;27.93;;;11.03;;
18174;SDS011;9212;50.894;16.714;2023-02-15T08:13:56;28.37;;;12.47;;
18174;SDS011;9212;50.894;16.714;2023-02-15T08:16:26;34.30;;;12.93;;
18174;SDS011;9212;50.894;16.714;2023-02-15T08:18:54;34.33;;;15.13;;
18174;SDS011;9212;50.894;16.714;2023-02-15T08:21:22;37.77;;;14.83;;
18174;SDS011;9212;50.894;16.714;2023-02-15T08:23:51;77.87;;;29.37;;
18174;SDS011;9212;50.894;16.714;2023-02-15T08:26:18;84.50;;;33.67;;
18174;SDS011;9212;50.894;16.714;2023-02-15T08:28:45;92.07;;;37.90;;
18174;SDS011;9212;50.894;16.714;2023-02-15T08:31:15;113.37;;;41.53;;
18174;SDS011;9212;50.894;16.714;2023-02-15T08:33:42;89.30;;;34.53;;
18174;SDS011;9212;50.894;16.714;2023-02-15T08:36:11;101.30;;;35.57;;
18174;SDS011;9212;50.894;16.714;2023-02-15T08:38:40;105.43;;;37.23;;
18174;SDS011;9212;50.894;16.714;2023-02-15T08:41:09;128.03;;;41.07;;
18174;SDS011;9212;50.894;16.714;2023-02-15T08:43:39;93.90;;;33.10;;
18174;SDS011;9212;50.894;16.714;2023-02-15T08:46:07;113.47;;;37.57;;
18174;SDS011;9212;50.894;16.714;2023-02-15T08:48:36;111.63;;;38.60;;
18174;SDS011;9212;50.894;16.714;2023-02-15T08:51:04;95.67;;;34.37;;
18174;SDS011;9212;50.894;16.714;2023-02-15T08:53:33;88.17;;;29.30;;
18174;SDS011;9212;50.894;16.714;2023-02-15T08:56:00;82.03;;;29.00;;
18174;SDS011;9212;50.894;16.714;2023-02-15T08:58:28;70.37;;;26.93;;
18174;SDS011;9212;50.894;16.714;2023-02-15T09:00:56;72.37;;;25.07;;
18174;SDS011;9212;50.894;16.714;2023-02-15T09:03:24;72.43;;;25.30;;
18174;SDS011;9212;50.894;16.714;2023-02-15T09:05:57;71.40;;;24.30;;
18174;SDS011;9212;50.894;16.714;2023-02-15T09:08:26;69.73;;;25.30;;
18174;SDS011;9212;50.894;16.714;2023-02-15T09:10:53;71.97;;;25.80;;
18174;SDS011;9212;50.894;16.714;2023-02-15T09:13:20;70.07;;;27.80;;
18174;SDS011;9212;50.894;16.714;2023-02-15T09:15:47;75.70;;;26.47;;
18174;SDS011;9212;50.894;16.714;2023-02-15T09:18:15;70.30;;;25.93;;
18174;SDS011;9212;50.894;16.714;2023-02-15T09:20:42;80.47;;;27.67;;
18174;SDS011;9212;50.894;16.714;2023-02-15T09:23:11;66.90;;;24.63;;
18174;SDS011;9212;50.894;16.714;2023-02-15T09:25:40;69.87;;;27.10;;
18174;SDS011;9212;50.894;16.714;2023-02-15T09:28:08;75.40;;;27.87;;
18174;SDS011;9212;50.894;16.714;2023-02-15T09:30:36;51.73;;;18.87;;
18174;SDS011;9212;50.894;16.714;2023-02-15T09:33:03;51.33;;;20.70;;
18174;SDS011;9212;50.894;16.714;2023-02-15T09:35:30;55.13;;;21.70;;
18174;SDS011;9212;50.894;16.714;2023-02-15T09:37:57;52.13;;;19.97;;
18174;SDS011;9212;50.894;16.714;2023-02-15T09:40:25;63.23;;;25.03;;
18174;SDS011;9212;50.894;16.714;2023-02-15T09:43:05;61.23;;;25.00;;
18174;SDS011;9212;50.894;16.714;2023-02-15T09:45:59;53.90;;;21.50;;
18174;SDS011;9212;50.894;16.714;2023-02-15T09:48:39;56.20;;;22.63;;
18174;SDS011;9212;50.894;16.714;2023-02-15T09:51:12;58.47;;;22.53;;
18174;SDS011;9212;50.894;16.714;2023-02-15T09:53:59;45.53;;;19.70;;
18174;SDS011;9212;50.894;16.714;2023-02-15T09:56:44;50.07;;;19.87;;
18174;SDS011;9212;50.894;16.714;2023-02-15T09:59:17;48.73;;;17.60;;
18174;SDS011;9212;50.894;16.714;2023-02-15T10:01:55;38.00;;;17.57;;
18174;SDS011;9212;50.894;16.714;2023-02-15T10:04:36;42.90;;;18.00;;
18174;SDS011;9212;50.894;16.714;2023-02-15T10:07:17;50.53;;;19.07;;
18174;SDS011;9212;50.894;16.714;2023-02-15T10:10:01;41.77;;;18.13;;
18174;SDS011;9212;50.894;16.714;2023-02-15T10:12:46;37.43;;;18.30;;
18174;SDS011;9212;50.894;16.714;2023-02-15T10:15:29;39.70;;;18.57;;
18174;SDS011;9212;50.894;16.714;2023-02-15T10:18:11;44.07;;;19.03;;
18174;SDS011;9212;50.894;16.714;2023-02-15T10:20:49;47.83;;;19.53;;
18174;SDS011;9212;50.894;16.714;2023-02-15T10:23:29;43.80;;;18.53;;
18174;SDS011;9212;50.894;16.714;2023-02-15T10:26:15;47.27;;;19.43;;
18174;SDS011;9212;50.894;16.714;2023-02-15T10:28:46;42.10;;;18.70;;
18174;SDS011;9212;50.894;16.714;2023-02-15T10:31:22;53.03;;;20.30;;
18174;SDS011;9212;50.894;16.714;2023-02-15T10:33:55;55.70;;;21.20;;
18174;SDS011;9212;50.894;16.714;2023-02-15T10:36:44;52.03;;;21.27;;
18174;SDS011;9212;50.894;16.714;2023-02-15T10:39:33;44.93;;;19.97;;
18174;SDS011;9212;50.894;16.714;2023-02-15T10:42:10;49.40;;;21.80;;
18174;SDS011;9212;50.894;16.714;2023-02-15T10:44:47;50.90;;;20.77;;
18174;SDS011;9212;50.894;16.714;2023-02-15T10:47:31;44.07;;;20.50;;
18174;SDS011;9212;50.894;16.714;2023-02-15T10:50:24;57.07;;;23.93;;
18174;SDS011;9212;50.894;16.714;2023-02-15T10:53:04;49.63;;;21.90;;
18174;SDS011;9212;50.894;16.714;2023-02-15T10:55:45;43.00;;;18.53;;
18174;SDS011;9212;50.894;16.714;2023-02-15T10:58:21;48.40;;;20.23;;
18174;SDS011;9212;50.894;16.714;2023-02-15T11:00:59;43.87;;;19.70;;
18174;SDS011;9212;50.894;16.714;2023-02-15T11:03:38;39.33;;;16.80;;
18174;SDS011;9212;50.894;16.714;2023-02-15T11:06:16;43.30;;;19.30;;
18174;SDS011;9212;50.894;16.714;2023-02-15T11:08:46;45.60;;;19.70;;
18174;SDS011;9212;50.894;16.714;2023-02-15T11:11:19;36.93;;;17.53;;
18174;SDS011;9212;50.894;16.714;2023-02-15T11:13:51;40.83;;;16.07;;
18174;SDS011;9212;50.894;16.714;2023-02-15T11:16:25;40.37;;;17.73;;
18174;SDS011;9212;50.894;16.714;2023-02-15T11:18:57;38.37;;;17.73;;
18174;SDS011;9212;50.894;16.714;2023-02-15T11:21:29;40.13;;;18.23;;
18174;SDS011;9212;50.894;16.714;2023-02-15T11:24:07;38.33;;;17.93;;
18174;SDS011;9212;50.894;16.714;2023-02-15T11:26:37;49.63;;;20.23;;
18174;SDS011;9212;50.894;16.714;2023-02-15T11:29:10;55.13;;;21.07;;
18174;SDS011;9212;50.894;16.714;2023-02-15T11:31:43;41.37;;;18.40;;
18174;SDS011;9212;50.894;16.714;2023-02-15T11:34:13;43.10;;;19.33;;
18174;SDS011;9212;50.894;16.714;2023-02-15T11:36:46;49.93;;;19.37;;
18174;SDS011;9212;50.894;16.714;2023-02-15T11:39:16;43.07;;;19.10;;
18174;SDS011;9212;50.894;16.714;2023-02-15T11:41:44;41.47;;;19.10;;
18174;SDS011;9212;50.894;16.714;2023-02-15T11:44:17;44.77;;;19.43;;
18174;SDS011;9212;50.894;16.714;2023-02-15T11:46:49;44.00;;;19.73;;
18174;SDS011;9212;50.894;16.714;2023-02-15T11:49:21;47.97;;;20.97;;
18174;SDS011;9212;50.894;16.714;2023-02-15T11:51:50;47.10;;;20.47;;
18174;SDS011;9212;50.894;16.714;2023-02-15T11:54:18;45.87;;;20.27;;
18174;SDS011;9212;50.894;16.714;2023-02-15T11:56:49;49.10;;;20.33;;
18174;SDS011;9212;50.894;16.714;2023-02-15T11:59:17;53.40;;;20.73;;
18174;SDS011;9212;50.894;16.714;2023-02-15T12:01:54;46.70;;;20.90;;
18174;SDS011;9212;50.894;16.714;2023-02-15T12:04:22;46.80;;;20.40;;
18174;SDS011;9212;50.894;16.714;2023-02-15T12:06:53;42.93;;;20.13;;
18174;SDS011;9212;50.894;16.714;2023-02-15T12:09:25;49.80;;;20.70;;
18174;SDS011;9212;50.894;16.714;2023-02-15T12:14:46;42.30;;;20.83;;
18174;SDS011;9212;50.894;16.714;2023-02-15T12:17:15;53.50;;;21.90;;
18174;SDS011;9212;50.894;16.714;2023-02-15T12:19:43;53.80;;;21.67;;
18174;SDS011;9212;50.894;16.714;2023-02-15T12:22:18;45.57;;;19.10;;
18174;SDS011;9212;50.894;16.714;2023-02-15T12:24:49;38.63;;;17.93;;
18174;SDS011;9212;50.894;16.714;2023-02-15T12:27:19;41.43;;;18.23;;
18174;SDS011;9212;50.894;16.714;2023-02-15T12:29:48;50.87;;;20.57;;
18174;SDS011;9212;50.894;16.714;2023-02-15T12:32:22;45.20;;;19.63;;
18174;SDS011;9212;50.894;16.714;2023-02-15T12:34:51;45.37;;;20.07;;
18174;SDS011;9212;50.894;16.714;2023-02-15T12:37:21;46.67;;;19.83;;
18174;SDS011;9212;50.894;16.714;2023-02-15T12:39:52;43.50;;;19.40;;
18174;SDS011;9212;50.894;16.714;2023-02-15T12:42:21;47.03;;;19.93;;
18174;SDS011;9212;50.894;16.714;2023-02-15T12:44:53;46.37;;;19.90;;
18174;SDS011;9212;50.894;16.714;2023-02-15T12:47:28;42.70;;;18.43;;
18174;SDS011;9212;50.894;16.714;2023-02-15T12:50:07;39.00;;;17.90;;
18174;SDS011;9212;50.894;16.714;2023-02-15T12:52:42;37.77;;;16.47;;
18174;SDS011;9212;50.894;16.714;2023-02-15T12:55:11;39.80;;;17.60;;
18174;SDS011;9212;50.894;16.714;2023-02-15T12:57:45;40.93;;;18.43;;
18174;SDS011;9212;50.894;16.714;2023-02-15T13:00:25;40.93;;;19.30;;
18174;SDS011;9212;50.894;16.714;2023-02-15T13:02:58;38.83;;;16.90;;
18174;SDS011;9212;50.894;16.714;2023-02-15T13:05:29;39.93;;;17.67;;
18174;SDS011;9212;50.894;16.714;2023-02-15T13:08:00;38.53;;;16.50;;
18174;SDS011;9212;50.894;16.714;2023-02-15T13:10:31;35.53;;;15.00;;
18174;SDS011;9212;50.894;16.714;2023-02-15T13:13:00;34.70;;;15.73;;
18174;SDS011;9212;50.894;16.714;2023-02-15T13:15:35;35.40;;;15.80;;
18174;SDS011;9212;50.894;16.714;2023-02-15T13:18:09;37.33;;;16.70;;
18174;SDS011;9212;50.894;16.714;2023-02-15T13:20:40;35.37;;;16.47;;
18174;SDS011;9212;50.894;16.714;2023-02-15T13:23:13;40.07;;;16.13;;
18174;SDS011;9212;50.894;16.714;2023-02-15T13:25:52;34.93;;;15.70;;
18174;SDS011;9212;50.894;16.714;2023-02-15T13:28:22;35.70;;;16.17;;
18174;SDS011;9212;50.894;16.714;2023-02-15T13:30:53;37.77;;;16.30;;
18174;SDS011;9212;50.894;16.714;2023-02-15T13:33:23;38.50;;;17.90;;
18174;SDS011;9212;50.894;16.714;2023-02-15T13:35:59;34.70;;;15.20;;
18174;SDS011;9212;50.894;16.714;2023-02-15T13:38:41;38.13;;;16.13;;
18174;SDS011;9212;50.894;16.714;2023-02-15T13:41:16;33.47;;;14.37;;
18174;SDS011;9212;50.894;16.714;2023-02-15T13:43:52;33.13;;;14.23;;
18174;SDS011;9212;50.894;16.714;2023-02-15T13:46:29;35.93;;;16.33;;
18174;SDS011;9212;50.894;16.714;2023-02-15T13:49:14;34.67;;;15.43;;
18174;SDS011;9212;50.894;16.714;2023-02-15T13:51:54;37.43;;;16.10;;
18174;SDS011;9212;50.894;16.714;2023-02-15T13:54:36;36.93;;;16.47;;
18174;SDS011;9212;50.894;16.714;2023-02-15T13:57:19;37.57;;;15.80;;
18174;SDS011;9212;50.894;16.714;2023-02-15T14:00:01;36.07;;;16.60;;
18174;SDS011;9212;50.894;16.714;2023-02-15T14:05:36;36.93;;;15.37;;
18174;SDS011;9212;50.894;16.714;2023-02-15T14:08:28;36.43;;;15.83;;
18174;SDS011;9212;50.894;16.714;2023-02-15T14:11:11;37.90;;;15.97;;
18174;SDS011;9212;50.894;16.714;2023-02-15T14:13:56;36.80;;;16.30;;
18174;SDS011;9212;50.894;16.714;2023-02-15T14:16:42;36.30;;;15.47;;
18174;SDS011;9212;50.894;16.714;2023-02-15T14:19:18;33.13;;;15.93;;
18174;SDS011;9212;50.894;16.714;2023-02-15T14:21:53;35.93;;;16.17;;
18174;SDS011;9212;50.894;16.714;2023-02-15T14:24:28;36.83;;;16.33;;
18174;SDS011;9212;50.894;16.714;2023-02-15T14:27:04;33.10;;;15.37;;
18174;SDS011;9212;50.894;16.714;2023-02-15T14:29:43;39.83;;;16.57;;
18174;SDS011;9212;50.894;16.714;2023-02-15T14:32:19;37.53;;;15.93;;
18174;SDS011;9212;50.894;16.714;2023-02-15T14:34:52;37.17;;;16.47;;
18174;SDS011;9212;50.894;16.714;2023-02-15T14:37:25;31.97;;;14.97;;
18174;SDS011;9212;50.894;16.714;2023-02-15T14:40:00;37.27;;;15.33;;
18174;SDS011;9212;50.894;16.714;2023-02-15T14:42:51;29.93;;;14.83;;
18174;SDS011;9212;50.894;16.714;2023-02-15T14:45:27;35.43;;;15.07;;
18174;SDS011;9212;50.894;16.714;2023-02-15T14:48:03;33.47;;;14.33;;
18174;SDS011;9212;50.894;16.714;2023-02-15T14:50:38;30.20;;;13.67;;
18174;SDS011;9212;50.894;16.714;2023-02-15T15:01:52;40.20;;;16.80;;
18174;SDS011;9212;50.894;16.714;2023-02-15T15:04:25;32.60;;;14.03;;
18174;SDS011;9212;50.894;16.714;2023-02-15T15:07:04;41.43;;;17.67;;
18174;SDS011;9212;50.894;16.714;2023-02-15T15:09:42;40.57;;;15.67;;